createdAt,value
2019-03-22T00:00:53.540Z,17.13
2019-03-22T00:03:42.598Z,16.87
2019-03-22T00:06:32.085Z,19.27
2019-03-22T00:09:21.124Z,21.53
2019-03-22T00:12:24.299Z,25.20
2019-03-22T00:18:00.681Z,21.50
2019-03-22T00:20:49.981Z,21.13
2019-03-22T00:23:38.993Z,21.43
2019-03-22T00:26:09.619Z,24.03
2019-03-22T00:28:39.865Z,20.83
2019-03-22T00:31:10.409Z,23.33
2019-03-22T00:33:41.231Z,23.47
2019-03-22T00:36:11.604Z,18.73
2019-03-22T00:38:41.850Z,17.07
2019-03-22T00:41:12.170Z,21.33
2019-03-22T00:43:42.427Z,17.10
2019-03-22T00:46:13.252Z,16.30
2019-03-22T00:48:43.512Z,17.53
2019-03-22T00:51:13.797Z,17.60
2019-03-22T00:53:44.037Z,17.17
2019-03-22T00:56:14.368Z,14.57
2019-03-22T00:58:45.130Z,16.20
2019-03-22T01:01:15.354Z,14.80
2019-03-22T01:03:45.623Z,12.90
2019-03-22T01:06:16.359Z,15.67
2019-03-22T01:08:46.662Z,13.40
2019-03-22T01:11:16.986Z,13.47
2019-03-22T01:13:47.539Z,16.90
2019-03-22T01:16:36.876Z,13.13
2019-03-22T01:22:34.088Z,13.73
2019-03-22T01:31:32.726Z,14.13
2019-03-22T01:34:21.811Z,13.10
2019-03-22T01:37:03.288Z,14.33
2019-03-22T01:39:44.123Z,15.20
2019-03-22T01:42:25.555Z,15.30
2019-03-22T01:45:06.865Z,13.40
2019-03-22T01:47:48.425Z,17.83
2019-03-22T01:50:29.827Z,16.03
2019-03-22T01:53:11.364Z,15.70
2019-03-22T01:55:52.825Z,20.43
2019-03-22T01:58:34.409Z,17.03
2019-03-22T02:01:04.896Z,16.27
2019-03-22T02:03:53.858Z,16.93
2019-03-22T02:06:43.105Z,14.77
2019-03-22T02:15:44.375Z,17.23
2019-03-22T02:18:16.825Z,17.73
2019-03-22T02:21:06.618Z,23.33
2019-03-22T02:23:36.805Z,23.50
2019-03-22T02:26:07.487Z,17.67
2019-03-22T02:28:37.905Z,15.13
2019-03-22T02:31:08.147Z,19.70
2019-03-22T02:33:38.368Z,20.90
2019-03-22T02:36:08.629Z,21.73
2019-03-22T02:38:39.230Z,19.47
2019-03-22T02:41:09.529Z,18.67
2019-03-22T02:43:39.828Z,18.43
2019-03-22T02:46:10.336Z,17.67
2019-03-22T02:48:40.647Z,16.33
2019-03-22T02:56:36.411Z,15.97
2019-03-22T03:05:15.797Z,17.70
2019-03-22T03:07:46.859Z,18.60
2019-03-22T03:10:17.443Z,18.73
2019-03-22T03:13:06.960Z,20.10
2019-03-22T03:15:56.006Z,19.23
2019-03-22T03:18:45.200Z,22.80
2019-03-22T03:24:43.900Z,23.00
2019-03-22T03:27:14.075Z,20.33
2019-03-22T03:29:44.628Z,21.53
2019-03-22T03:32:14.871Z,19.67
2019-03-22T03:34:45.099Z,19.40
2019-03-22T03:37:15.638Z,18.90
2019-03-22T03:40:04.767Z,22.37
2019-03-22T03:42:46.425Z,22.73
2019-03-22T03:45:27.967Z,22.83
2019-03-22T03:48:08.681Z,22.83
2019-03-22T03:50:49.786Z,19.23
2019-03-22T03:53:30.664Z,21.67
2019-03-22T03:56:12.340Z,23.83
2019-03-22T03:58:53.172Z,21.07
2019-03-22T04:04:40.652Z,18.87
2019-03-22T04:07:29.791Z,22.13
2019-03-22T04:10:18.754Z,21.93
2019-03-22T04:13:19.409Z,25.63
2019-03-22T04:19:07.784Z,22.40
2019-03-22T04:25:06.210Z,18.47
2019-03-22T04:31:05.009Z,24.60
2019-03-22T04:33:54.362Z,23.73
2019-03-22T04:36:43.591Z,25.33
2019-03-22T04:39:32.637Z,24.13
2019-03-22T04:55:14.359Z,23.13
2019-03-22T04:58:04.540Z,26.83
2019-03-22T05:00:45.558Z,26.87
2019-03-22T05:03:26.254Z,28.93
2019-03-22T05:06:08.022Z,30.70
2019-03-22T05:08:49.603Z,27.47
2019-03-22T05:11:40.265Z,28.67
2019-03-22T05:24:02.860Z,27.00
2019-03-22T05:30:03.255Z,27.10
2019-03-22T05:33:06.296Z,28.63
2019-03-22T05:36:06.090Z,27.63
2019-03-22T05:44:45.429Z,30.17
2019-03-22T05:47:15.813Z,28.57
2019-03-22T05:49:46.418Z,32.87
2019-03-22T05:52:16.627Z,27.90
2019-03-22T05:54:46.960Z,30.13
2019-03-22T05:57:17.185Z,29.10
2019-03-22T05:59:47.448Z,30.10
2019-03-22T06:02:18.003Z,27.87
2019-03-22T06:04:48.301Z,31.00
2019-03-22T06:07:18.655Z,29.20
2019-03-22T06:09:48.910Z,28.17
2019-03-22T06:12:19.509Z,29.63
2019-03-22T06:14:49.910Z,29.70
2019-03-22T06:17:20.202Z,30.97
2019-03-22T06:19:50.726Z,29.43
2019-03-22T06:22:21.109Z,26.50
2019-03-22T06:24:51.415Z,29.73
2019-03-22T06:27:21.961Z,32.27
2019-03-22T06:29:54.369Z,30.43
2019-03-22T06:32:24.607Z,28.87
2019-03-22T06:34:55.128Z,29.93
2019-03-22T06:37:25.381Z,25.60
2019-03-22T06:39:55.686Z,26.93
2019-03-22T06:42:26.228Z,26.47
2019-03-22T06:44:56.632Z,33.67
2019-03-22T06:47:26.945Z,30.27
2019-03-22T06:49:57.564Z,28.53
2019-03-22T06:52:27.813Z,29.17
2019-03-22T06:54:58.245Z,30.83
2019-03-22T06:57:28.811Z,27.07
2019-03-22T07:00:06.478Z,27.83
2019-03-22T07:02:31.355Z,24.20
2019-03-22T07:05:01.964Z,27.17
2019-03-22T07:07:32.249Z,26.27
2019-03-22T07:10:02.548Z,27.37
2019-03-22T07:12:33.365Z,26.93
2019-03-22T07:15:03.735Z,24.53
2019-03-22T07:17:34.094Z,28.20
2019-03-22T07:20:04.942Z,26.07
2019-03-22T07:22:35.240Z,24.43
2019-03-22T07:25:06.014Z,24.30
2019-03-22T07:27:36.399Z,21.57
2019-03-22T07:30:18.036Z,22.20
2019-03-22T07:32:40.071Z,20.87
2019-03-22T07:35:10.385Z,23.53
2019-03-22T07:37:41.003Z,21.83
2019-03-22T07:40:12.121Z,25.10
2019-03-22T07:42:42.375Z,20.43
2019-03-22T07:45:13.082Z,20.13
2019-03-22T07:47:43.478Z,23.27
2019-03-22T07:50:24.524Z,28.93
2019-03-22T07:52:55.181Z,22.83
2019-03-22T07:55:25.408Z,21.43
2019-03-22T07:57:55.988Z,19.30
2019-03-22T08:00:30.932Z,16.87
2019-03-22T08:02:58.280Z,14.50
2019-03-22T08:05:28.886Z,15.93
2019-03-22T08:07:59.253Z,13.80
2019-03-22T08:10:29.888Z,14.03
2019-03-22T08:13:00.146Z,15.83
2019-03-22T08:15:32.291Z,12.00
2019-03-22T08:18:02.823Z,12.73
2019-03-22T08:20:38.656Z,7.63
2019-03-22T08:23:18.937Z,10.13
2019-03-22T08:25:51.803Z,8.57
2019-03-22T08:28:22.110Z,8.50
2019-03-22T08:30:53.500Z,11.97
2019-03-22T08:33:23.945Z,17.40
2019-03-22T08:35:54.652Z,7.83
2019-03-22T08:38:24.866Z,9.23
2019-03-22T08:40:55.315Z,10.33
2019-03-22T08:43:25.881Z,8.10
2019-03-22T08:45:56.280Z,6.50
2019-03-22T08:48:26.675Z,6.37
2019-03-22T08:50:57.102Z,4.37
2019-03-22T08:53:27.341Z,4.23
2019-03-22T08:55:58.972Z,3.27
2019-03-22T08:58:29.221Z,4.60
2019-03-22T09:00:59.483Z,4.93
2019-03-22T09:03:30.131Z,3.90
2019-03-22T09:06:00.387Z,6.57
2019-03-22T09:08:30.668Z,6.13
2019-03-22T09:11:01.271Z,6.60
2019-03-22T09:13:31.585Z,6.37
2019-03-22T09:16:01.862Z,4.10
2019-03-22T09:18:32.627Z,4.40
2019-03-22T09:21:02.860Z,4.63
2019-03-22T09:23:33.198Z,5.33
2019-03-22T09:26:03.883Z,4.87
2019-03-22T09:28:34.197Z,4.43
2019-03-22T09:31:10.156Z,3.43
2019-03-22T09:33:36.784Z,4.40
2019-03-22T09:36:07.073Z,4.30
2019-03-22T09:38:37.308Z,5.00
2019-03-22T09:41:08.969Z,5.63
2019-03-22T09:43:39.391Z,8.13
2019-03-22T09:46:09.634Z,9.07
2019-03-22T09:48:39.957Z,7.13
2019-03-22T09:51:10.255Z,8.30
2019-03-22T09:53:40.631Z,6.67
2019-03-22T09:56:10.938Z,6.53
2019-03-22T09:58:41.547Z,5.23
2019-03-22T10:01:23.092Z,5.07
2019-03-22T10:03:43.765Z,8.90
2019-03-22T10:06:14.434Z,5.90
2019-03-22T10:08:44.665Z,4.80
2019-03-22T10:11:15.281Z,6.10
2019-03-22T10:13:48.225Z,4.10
2019-03-22T10:16:17.512Z,6.10
2019-03-22T10:18:48.145Z,4.10
2019-03-22T10:21:22.641Z,3.10
2019-03-22T10:23:50.365Z,3.83
2019-03-22T10:26:21.047Z,6.17
2019-03-22T10:28:51.292Z,4.37
2019-03-22T10:31:21.593Z,3.93
2019-03-22T10:33:52.204Z,3.83
2019-03-22T10:36:22.629Z,6.60
2019-03-22T10:38:52.913Z,4.23
2019-03-22T10:41:23.597Z,4.60
2019-03-22T10:43:53.878Z,7.93
2019-03-22T10:46:24.250Z,4.90
2019-03-22T10:48:54.856Z,3.80
2019-03-22T10:51:25.120Z,3.77
2019-03-22T10:53:55.496Z,4.63
2019-03-22T10:56:27.772Z,4.97
2019-03-22T10:58:58.217Z,5.20
2019-03-22T11:01:28.605Z,5.57
2019-03-22T11:03:59.422Z,5.17
2019-03-22T11:06:29.937Z,6.57
2019-03-22T11:09:00.245Z,6.00
2019-03-22T11:11:30.908Z,5.47
2019-03-22T11:14:01.160Z,6.23
2019-03-22T11:16:31.792Z,5.67
2019-03-22T11:19:03.492Z,5.77
2019-03-22T11:21:33.924Z,7.93
2019-03-22T11:24:04.433Z,6.53
2019-03-22T11:29:14.804Z,7.73
2019-03-22T11:31:45.119Z,8.77
2019-03-22T11:34:15.748Z,5.53
2019-03-22T11:36:46.131Z,7.73
2019-03-22T11:39:16.590Z,8.27
2019-03-22T11:41:47.298Z,6.37
2019-03-22T11:44:17.675Z,5.10
2019-03-22T11:46:48.116Z,5.57
2019-03-22T11:49:18.733Z,6.50
2019-03-22T11:51:49.085Z,6.90
2019-03-22T11:54:19.514Z,11.77
2019-03-22T11:56:50.139Z,7.00
2019-03-22T11:59:20.442Z,9.67
2019-03-22T12:01:50.762Z,7.67
2019-03-22T12:04:21.380Z,6.60
2019-03-22T12:06:51.729Z,7.03
2019-03-22T12:09:23.021Z,11.07
2019-03-22T12:11:53.793Z,6.17
2019-03-22T12:14:44.066Z,7.60
2019-03-22T12:18:06.768Z,8.60
2019-03-22T12:20:27.301Z,7.00
2019-03-22T12:22:57.856Z,8.53
2019-03-22T12:25:28.155Z,11.93
2019-03-22T12:27:58.698Z,8.93
2019-03-22T12:30:29.352Z,8.50
2019-03-22T12:32:59.637Z,6.63
2019-03-22T12:35:30.067Z,9.30
2019-03-22T12:38:00.836Z,5.33
2019-03-22T12:40:31.147Z,9.80
2019-03-22T12:43:01.470Z,13.43
2019-03-22T12:45:46.511Z,6.10
2019-03-22T12:48:04.891Z,7.50
2019-03-22T12:50:35.207Z,11.07
2019-03-22T12:53:05.879Z,6.93
2019-03-22T12:55:36.360Z,5.50
2019-03-22T12:58:06.729Z,7.63
2019-03-22T13:00:37.405Z,7.47
2019-03-22T13:03:26.423Z,9.50
2019-03-22T13:09:36.771Z,8.33
2019-03-22T13:11:57.243Z,7.87
2019-03-22T13:14:27.557Z,6.40
2019-03-22T13:16:57.852Z,6.80
2019-03-22T13:19:28.534Z,9.20
2019-03-22T13:22:17.573Z,8.43
2019-03-22T13:24:48.123Z,9.53
2019-03-22T13:27:37.206Z,6.70
2019-03-22T13:30:44.948Z,9.07
2019-03-22T13:33:34.185Z,9.90
2019-03-22T13:36:04.807Z,10.90
2019-03-22T13:38:35.161Z,8.33
2019-03-22T13:44:25.210Z,7.70
2019-03-22T13:50:13.653Z,4.73
2019-03-22T13:52:44.365Z,4.80
2019-03-22T13:55:14.861Z,7.17
2019-03-22T13:57:45.478Z,8.07
2019-03-22T14:00:34.584Z,8.90
2019-03-22T14:03:04.897Z,5.33
2019-03-22T14:05:35.307Z,6.47
2019-03-22T14:08:06.474Z,3.87
2019-03-22T14:10:55.461Z,3.43
2019-03-22T14:19:35.200Z,6.73
2019-03-22T14:22:05.514Z,7.27
2019-03-22T14:24:54.545Z,6.80
2019-03-22T14:27:24.878Z,6.87
2019-03-22T14:29:55.155Z,7.57
2019-03-22T14:32:25.823Z,8.30
2019-03-22T14:34:56.110Z,5.97
2019-03-22T14:37:26.395Z,7.40
2019-03-22T14:39:56.864Z,5.33
2019-03-22T14:42:41.061Z,5.57
2019-03-22T14:45:17.940Z,5.50
2019-03-22T14:47:48.627Z,3.30
2019-03-22T14:50:19.210Z,4.17
2019-03-22T14:52:49.707Z,5.73
2019-03-22T14:55:19.961Z,4.27
2019-03-22T14:58:00.903Z,9.10
2019-03-22T15:00:31.278Z,6.73
2019-03-22T15:03:01.671Z,5.53
2019-03-22T15:05:32.267Z,6.13
2019-03-22T15:08:02.710Z,3.97
2019-03-22T15:10:33.396Z,3.77
2019-03-22T15:13:03.946Z,6.37
2019-03-22T15:15:53.084Z,6.97
2019-03-22T15:18:42.718Z,5.93
2019-03-22T15:21:50.710Z,6.80
2019-03-22T15:24:40.378Z,5.53
2019-03-22T15:28:00.059Z,6.50
2019-03-22T15:30:57.952Z,7.70
2019-03-22T15:33:47.441Z,6.73
2019-03-22T15:36:36.949Z,4.87
2019-03-22T15:39:27.991Z,4.90
2019-03-22T15:41:58.943Z,6.33
2019-03-22T15:44:29.310Z,5.50
2019-03-22T15:46:59.667Z,5.77
2019-03-22T15:49:30.322Z,6.93
2019-03-22T15:52:19.467Z,6.03
2019-03-22T15:54:50.188Z,4.53
2019-03-22T15:57:20.511Z,4.97
2019-03-22T15:59:50.855Z,3.67
2019-03-22T16:02:21.499Z,4.87
2019-03-22T16:05:24.882Z,5.83
2019-03-22T16:08:15.695Z,4.43
2019-03-22T16:10:52.536Z,5.00
2019-03-22T16:13:23.267Z,6.03
2019-03-22T16:19:36.147Z,4.40
2019-03-22T16:22:13.586Z,5.83
2019-03-22T16:33:54.857Z,4.93
2019-03-22T16:36:42.830Z,5.30
2019-03-22T16:42:33.172Z,4.93
2019-03-22T16:45:41.017Z,4.97
2019-03-22T16:51:20.042Z,7.17
2019-03-22T16:53:50.607Z,8.17
2019-03-22T16:56:21.195Z,8.53
2019-03-22T16:58:53.221Z,2.77
2019-03-22T17:08:13.507Z,1.10
2019-03-22T17:11:02.761Z,1.03
2019-03-22T17:14:05.449Z,1.77
2019-03-22T17:16:43.044Z,2.63
2019-03-22T17:19:32.413Z,2.23
2019-03-22T17:25:50.670Z,1.97
2019-03-22T17:28:39.746Z,3.20
2019-03-22T17:34:48.834Z,5.17
2019-03-22T17:37:38.066Z,7.87
2019-03-22T17:40:39.083Z,4.57
2019-03-22T17:58:20.299Z,2.47
2019-03-22T18:00:50.791Z,1.70
2019-03-22T18:03:21.162Z,3.83
2019-03-22T18:05:53.176Z,1.57
2019-03-22T18:11:42.473Z,2.33
2019-03-22T18:14:13.374Z,1.50
2019-03-22T18:16:43.991Z,4.27
2019-03-22T18:19:14.339Z,7.10
2019-03-22T18:28:12.665Z,8.40
2019-03-22T18:33:52.841Z,8.87
2019-03-22T18:46:12.729Z,11.93
2019-03-22T18:48:33.107Z,11.47
2019-03-22T18:54:07.287Z,12.23
2019-03-22T18:56:37.908Z,9.93
2019-03-22T18:59:08.350Z,12.40
2019-03-22T19:01:38.818Z,11.57
2019-03-22T19:04:09.565Z,11.37
2019-03-22T19:06:39.968Z,8.57
2019-03-22T19:09:13.506Z,15.23
2019-03-22T19:11:45.209Z,16.43
2019-03-22T19:14:15.597Z,16.20
2019-03-22T19:16:45.963Z,11.57
2019-03-22T19:19:16.680Z,10.83
2019-03-22T19:21:47.000Z,12.93
2019-03-22T19:24:17.498Z,12.27
2019-03-22T19:26:49.508Z,11.67
2019-03-22T19:29:19.908Z,10.70
2019-03-22T19:31:50.433Z,11.53
2019-03-22T19:34:39.500Z,9.80
2019-03-22T19:37:09.964Z,11.33
2019-03-22T19:39:40.884Z,12.60
2019-03-22T19:42:11.318Z,18.33
2019-03-22T19:44:41.749Z,15.07
2019-03-22T19:50:14.806Z,18.33
2019-03-22T19:55:48.179Z,12.80
2019-03-22T19:58:18.999Z,13.47
2019-03-22T20:00:49.556Z,14.40
2019-03-22T20:03:20.098Z,12.53
2019-03-22T20:06:09.174Z,13.73
2019-03-22T20:08:39.828Z,12.93
2019-03-22T20:11:28.899Z,12.27
2019-03-22T20:13:59.346Z,15.90
2019-03-22T20:19:37.938Z,14.20
2019-03-22T20:22:09.120Z,16.27
2019-03-22T20:24:39.587Z,15.13
2019-03-22T20:27:28.841Z,13.77
2019-03-22T20:29:59.409Z,11.70
2019-03-22T20:32:29.917Z,15.77
2019-03-22T20:35:19.103Z,11.70
2019-03-22T20:43:58.841Z,13.60
2019-03-22T20:46:47.975Z,11.43
2019-03-22T20:49:37.170Z,13.47
2019-03-22T20:52:26.414Z,12.03
2019-03-22T20:55:15.459Z,15.27
2019-03-22T20:58:04.648Z,17.17
2019-03-22T21:00:35.265Z,12.17
2019-03-22T21:03:24.430Z,15.60
2019-03-22T21:05:54.826Z,17.57
2019-03-22T21:08:45.847Z,14.80
2019-03-22T21:11:16.305Z,17.20
2019-03-22T21:13:47.011Z,14.33
2019-03-22T21:16:36.115Z,19.83
2019-03-22T21:19:25.216Z,20.83
2019-03-22T21:21:55.596Z,17.97
2019-03-22T21:24:27.388Z,19.20
2019-03-22T21:26:57.965Z,18.57
2019-03-22T21:29:28.388Z,17.33
2019-03-22T21:32:17.491Z,17.50
2019-03-22T21:34:47.930Z,12.57
2019-03-22T21:40:19.371Z,15.70
2019-03-22T21:43:08.541Z,13.87
2019-03-22T21:45:38.923Z,18.80
2019-03-22T21:48:28.032Z,17.43
2019-03-22T21:53:49.654Z,19.60
2019-03-22T21:56:20.040Z,20.23
2019-03-22T21:59:09.086Z,19.70
2019-03-22T22:04:29.101Z,18.20
2019-03-22T22:06:59.470Z,19.60
2019-03-22T22:09:40.677Z,19.83
2019-03-22T22:12:11.153Z,22.43
2019-03-22T22:14:41.585Z,21.33
2019-03-22T22:17:30.731Z,23.70
2019-03-22T22:20:01.131Z,21.70
2019-03-22T22:22:31.829Z,18.77
2019-03-22T22:25:02.512Z,19.87
2019-03-22T22:27:51.544Z,23.50
2019-03-22T22:30:40.594Z,20.57
2019-03-22T22:33:11.181Z,18.37
2019-03-22T22:36:21.039Z,22.93
2019-03-22T22:39:10.126Z,19.60
2019-03-22T22:41:59.197Z,17.97
2019-03-22T22:44:48.393Z,19.03
2019-03-22T22:47:18.848Z,19.67
2019-03-22T22:49:49.820Z,18.37
2019-03-22T22:52:38.991Z,20.30
2019-03-22T22:55:09.967Z,18.50
2019-03-22T22:57:40.399Z,18.20
2019-03-22T23:00:13.957Z,18.90
2019-03-22T23:02:44.935Z,20.53
2019-03-22T23:05:15.479Z,23.90
2019-03-22T23:07:45.924Z,21.87
2019-03-22T23:10:36.921Z,25.20
2019-03-22T23:13:07.377Z,21.97
2019-03-22T23:15:37.958Z,26.17
2019-03-22T23:18:27.026Z,26.50
2019-03-22T23:20:57.655Z,21.23
2019-03-22T23:23:28.007Z,20.80
2019-03-22T23:26:17.042Z,24.57
2019-03-22T23:28:47.379Z,24.80
2019-03-22T23:31:36.456Z,26.00
2019-03-22T23:34:06.771Z,25.53
2019-03-22T23:36:37.184Z,24.17
2019-03-22T23:39:26.276Z,25.30
2019-03-22T23:42:15.295Z,25.50
2019-03-22T23:45:04.535Z,28.07
2019-03-22T23:47:53.538Z,27.87
2019-03-22T23:51:03.135Z,25.93
2019-03-22T23:53:33.509Z,25.93
2019-03-22T23:56:22.614Z,28.93
2019-03-22T23:59:11.819Z,29.03
